createdAt,value
2022-08-19T00:01:30.316Z,56.28
2022-08-19T00:04:37.593Z,56.47
2022-08-19T00:07:43.828Z,56.44
2022-08-19T00:10:46.897Z,56.73
2022-08-19T00:13:51.022Z,56.71
2022-08-19T00:16:55.679Z,56.75
2022-08-19T00:19:58.382Z,56.96
2022-08-19T00:23:02.230Z,57.07
2022-08-19T00:26:05.288Z,57.19
2022-08-19T00:29:08.477Z,57.09
2022-08-19T00:32:11.673Z,57.51
2022-08-19T00:35:18.369Z,57.54
2022-08-19T00:38:35.197Z,57.81
2022-08-19T00:41:41.845Z,57.96
2022-08-19T00:44:44.882Z,57.87
2022-08-19T00:47:47.684Z,58.21
2022-08-19T00:50:52.452Z,58.08
2022-08-19T00:53:57.787Z,58.24
2022-08-19T00:57:01.378Z,58.13
2022-08-19T01:00:08.154Z,58.15
2022-08-19T01:03:16.108Z,58.11
2022-08-19T01:06:22.124Z,57.92
2022-08-19T01:09:26.217Z,57.98
2022-08-19T01:12:28.926Z,57.81
2022-08-19T01:15:34.854Z,57.88
2022-08-19T01:18:40.745Z,57.74
2022-08-19T01:21:48.080Z,58.03
2022-08-19T01:24:52.805Z,57.98
2022-08-19T01:28:10.627Z,58.37
2022-08-19T01:31:27.265Z,58.27
2022-08-19T01:34:30.545Z,58.66
2022-08-19T01:37:44.144Z,58.59
2022-08-19T01:40:48.264Z,58.93
2022-08-19T01:44:03.155Z,59.17
2022-08-19T01:47:14.115Z,59.31
2022-08-19T01:50:16.791Z,59.05
2022-08-19T01:53:19.448Z,59.19
2022-08-19T01:56:24.249Z,58.88
2022-08-19T01:59:27.110Z,59.24
2022-08-19T02:02:29.754Z,59.44
2022-08-19T02:05:32.751Z,59.38
2022-08-19T02:08:38.156Z,59.62
2022-08-19T02:11:43.399Z,60.22
2022-08-19T02:14:46.014Z,60.10
2022-08-19T02:17:49.403Z,60.20
2022-08-19T02:20:52.088Z,60.31
2022-08-19T02:23:54.931Z,60.19
2022-08-19T02:26:59.659Z,60.65
2022-08-19T02:30:02.800Z,60.74
2022-08-19T02:33:05.613Z,60.67
2022-08-19T02:36:10.220Z,60.51
2022-08-19T02:39:12.804Z,60.82
2022-08-19T02:42:16.744Z,60.79
2022-08-19T02:45:19.677Z,61.41
2022-08-19T02:48:24.323Z,61.50
2022-08-19T02:51:29.675Z,61.68
2022-08-19T02:54:32.465Z,61.65
2022-08-19T02:57:36.790Z,61.87
2022-08-19T03:00:44.442Z,62.19
2022-08-19T03:03:47.367Z,63.06
2022-08-19T03:06:50.268Z,63.05
2022-08-19T03:09:52.962Z,62.88
2022-08-19T03:12:56.914Z,62.61
2022-08-19T03:15:59.568Z,63.10
2022-08-19T03:19:03.446Z,63.34
2022-08-19T03:22:06.317Z,63.44
2022-08-19T03:25:10.051Z,63.59
2022-08-19T03:28:15.922Z,63.61
2022-08-19T03:31:43.518Z,63.61
2022-08-19T03:34:43.703Z,63.47
2022-08-19T03:37:46.308Z,63.68
2022-08-19T03:40:48.879Z,63.99
2022-08-19T03:43:54.297Z,63.70
2022-08-19T03:46:59.201Z,64.19
2022-08-19T03:50:02.483Z,63.98
2022-08-19T03:53:05.346Z,64.53
2022-08-19T03:56:10.850Z,64.12
2022-08-19T03:59:17.462Z,64.25
2022-08-19T04:02:20.846Z,64.56
2022-08-19T04:05:27.582Z,64.57
2022-08-19T04:08:31.209Z,64.46
2022-08-19T04:11:42.910Z,64.82
2022-08-19T04:14:48.236Z,64.45
2022-08-19T04:17:50.969Z,64.82
2022-08-19T04:20:53.871Z,65.10
2022-08-19T04:23:57.847Z,64.91
2022-08-19T04:27:01.652Z,65.18
2022-08-19T04:30:07.218Z,64.74
2022-08-19T04:33:10.042Z,64.87
2022-08-19T04:36:18.273Z,64.55
2022-08-19T04:39:45.698Z,64.65
2022-08-19T04:42:47.754Z,64.84
2022-08-19T04:45:56.382Z,64.94
2022-08-19T04:49:00.079Z,64.29
2022-08-19T04:52:12.880Z,64.20
2022-08-19T04:55:15.654Z,64.43
2022-08-19T04:58:18.479Z,64.55
2022-08-19T05:01:24.445Z,64.51
2022-08-19T05:04:27.486Z,64.58
2022-08-19T05:07:32.167Z,64.60
2022-08-19T05:10:37.475Z,64.09
2022-08-19T05:13:40.525Z,64.83
2022-08-19T05:16:46.295Z,64.19
2022-08-19T05:20:06.940Z,64.32
2022-08-19T05:23:13.057Z,63.66
2022-08-19T05:26:27.097Z,63.05
2022-08-19T05:29:36.544Z,63.02
2022-08-19T05:32:41.431Z,63.28
2022-08-19T05:35:45.179Z,63.43
2022-08-19T05:38:51.559Z,63.29
2022-08-19T05:41:59.282Z,64.07
2022-08-19T05:45:02.881Z,63.79
2022-08-19T05:48:07.814Z,64.00
2022-08-19T05:51:10.559Z,63.88
2022-08-19T05:54:15.137Z,64.26
2022-08-19T05:57:18.438Z,64.48
2022-08-19T06:00:24.667Z,64.26
2022-08-19T06:03:30.391Z,64.18
2022-08-19T06:06:35.211Z,64.52
2022-08-19T06:09:38.821Z,64.49
2022-08-19T06:12:42.390Z,65.11
2022-08-19T06:15:47.544Z,64.32
2022-08-19T06:18:53.603Z,64.68
2022-08-19T06:21:56.201Z,64.23
2022-08-19T06:24:59.701Z,63.76
2022-08-19T06:28:19.616Z,64.79
2022-08-19T06:31:25.216Z,66.66
2022-08-19T06:34:31.659Z,67.81
2022-08-19T06:37:34.706Z,69.66
2022-08-19T06:40:39.479Z,70.29
2022-08-19T06:43:44.122Z,70.93
2022-08-19T06:46:53.566Z,71.54
2022-08-19T06:50:03.408Z,71.26
2022-08-19T06:53:07.957Z,70.61
2022-08-19T06:56:10.849Z,70.33
2022-08-19T06:59:15.802Z,68.71
2022-08-19T07:02:20.869Z,67.81
2022-08-19T07:05:25.185Z,66.73
2022-08-19T07:08:29.360Z,66.81
2022-08-19T07:11:33.587Z,66.89
2022-08-19T07:14:38.251Z,65.38
2022-08-19T07:17:42.644Z,66.04
2022-08-19T07:20:49.635Z,65.59
2022-08-19T07:23:53.599Z,65.70
2022-08-19T07:27:01.614Z,65.55
2022-08-19T07:30:05.928Z,65.39
2022-08-19T07:33:09.169Z,65.79
2022-08-19T07:36:13.850Z,65.34
2022-08-19T07:39:19.288Z,65.26
2022-08-19T07:42:23.067Z,65.15
2022-08-19T07:45:26.079Z,65.66
2022-08-19T07:48:29.874Z,66.22
2022-08-19T07:51:36.904Z,66.09
2022-08-19T07:54:41.826Z,65.82
2022-08-19T08:00:52.843Z,69.93
2022-08-19T08:04:13.712Z,72.16
2022-08-19T08:07:36.485Z,73.52
2022-08-19T08:10:39.599Z,74.37
2022-08-19T08:13:45.140Z,75.09
2022-08-19T08:16:48.371Z,75.94
2022-08-19T08:19:51.919Z,77.44
2022-08-19T08:23:13.655Z,77.89
2022-08-19T08:26:17.259Z,78.03
2022-08-19T08:29:22.502Z,78.58
2022-08-19T08:32:28.952Z,78.17
2022-08-19T08:35:31.921Z,76.72
2022-08-19T08:38:41.195Z,77.11
2022-08-19T08:41:49.185Z,77.50
2022-08-19T08:48:22.281Z,78.06
2022-08-19T08:51:34.842Z,76.64
2022-08-19T08:54:48.839Z,75.67
2022-08-19T08:58:03.924Z,75.29
2022-08-19T09:01:07.143Z,72.26
2022-08-19T09:04:10.038Z,70.34
2022-08-19T09:07:35.030Z,68.22
2022-08-19T09:10:45.716Z,67.54
2022-08-19T09:13:58.076Z,67.43
2022-08-19T09:17:01.611Z,66.24
2022-08-19T09:20:09.564Z,66.57
2022-08-19T09:23:13.081Z,66.75
2022-08-19T09:26:18.769Z,67.62
2022-08-19T09:29:22.858Z,67.89
2022-08-19T09:32:27.192Z,67.33
2022-08-19T09:35:31.761Z,67.33
2022-08-19T09:38:34.795Z,66.61
2022-08-19T09:41:39.034Z,66.38
2022-08-19T09:44:49.955Z,68.04
2022-08-19T09:47:55.515Z,68.81
2022-08-19T09:51:04.918Z,70.54
2022-08-19T09:54:07.871Z,71.52
2022-08-19T09:57:15.913Z,69.78
2022-08-19T10:00:18.756Z,69.29
2022-08-19T10:03:21.518Z,68.70
2022-08-19T10:06:45.567Z,68.08
2022-08-19T10:09:49.241Z,66.72
2022-08-19T10:12:56.131Z,66.41
2022-08-19T10:16:05.879Z,68.78
2022-08-19T10:19:10.335Z,71.31
2022-08-19T10:22:15.380Z,70.85
2022-08-19T10:25:18.797Z,72.05
2022-08-19T10:28:24.031Z,73.34
2022-08-19T10:32:01.094Z,74.10
2022-08-19T10:34:52.916Z,74.63
2022-08-19T10:38:02.502Z,74.60
2022-08-19T10:41:11.307Z,72.60
2022-08-19T10:44:17.209Z,69.93
2022-08-19T10:47:25.773Z,68.72
2022-08-19T10:50:46.867Z,67.32
2022-08-19T10:53:50.488Z,63.08
2022-08-19T10:56:52.248Z,62.66
2022-08-19T10:59:56.412Z,62.28
2022-08-19T11:02:59.171Z,62.67
2022-08-19T11:06:02.551Z,62.41
2022-08-19T11:09:05.678Z,61.71
2022-08-19T11:12:11.649Z,61.83
2022-08-19T11:15:16.042Z,62.34
2022-08-19T11:18:19.030Z,61.30
2022-08-19T11:21:24.554Z,60.36
2022-08-19T11:24:28.389Z,58.35
2022-08-19T11:27:31.566Z,56.50
2022-08-19T11:30:35.579Z,55.97
2022-08-19T11:33:38.363Z,55.66
2022-08-19T11:36:43.572Z,53.74
2022-08-19T11:39:46.347Z,54.31
2022-08-19T11:42:59.331Z,53.73
2022-08-19T11:46:07.729Z,54.30
2022-08-19T11:49:14.073Z,54.79
2022-08-19T11:52:17.060Z,56.64
2022-08-19T11:55:20.561Z,56.40
2022-08-19T11:58:23.596Z,58.42
2022-08-19T12:01:28.574Z,59.46
2022-08-19T12:04:31.685Z,57.85
2022-08-19T12:07:35.290Z,59.27
2022-08-19T12:10:38.410Z,60.95
2022-08-19T12:13:42.122Z,61.03
2022-08-19T12:16:51.115Z,59.83
2022-08-19T12:19:55.130Z,59.66
2022-08-19T12:22:57.975Z,59.56
2022-08-19T12:26:00.811Z,59.05
2022-08-19T12:29:03.766Z,59.35
2022-08-19T12:32:08.631Z,59.82
2022-08-19T12:35:15.004Z,60.80
2022-08-19T12:38:18.197Z,61.78
2022-08-19T12:41:23.362Z,62.59
2022-08-19T12:44:29.157Z,62.29
2022-08-19T12:47:34.375Z,62.01
2022-08-19T12:50:41.702Z,61.99
2022-08-19T12:53:44.908Z,61.18
2022-08-19T12:56:48.179Z,59.45
2022-08-19T12:59:54.655Z,58.57
2022-08-19T13:02:59.026Z,58.21
2022-08-19T13:06:01.866Z,57.70
2022-08-19T13:09:04.602Z,58.48
2022-08-19T13:12:13.919Z,59.91
2022-08-19T13:15:23.756Z,61.82
2022-08-19T13:18:28.329Z,63.93
2022-08-19T13:21:32.578Z,65.17
2022-08-19T13:24:37.602Z,65.51
2022-08-19T13:27:41.267Z,65.75
2022-08-19T13:31:01.491Z,65.88
2022-08-19T13:34:06.708Z,66.45
2022-08-19T13:37:10.152Z,69.92
2022-08-19T13:40:17.040Z,71.97
2022-08-19T13:43:22.988Z,73.55
2022-08-19T13:46:26.319Z,73.64
2022-08-19T13:49:32.093Z,73.25
2022-08-19T13:52:35.059Z,74.14
2022-08-19T13:55:37.997Z,75.14
2022-08-19T13:58:40.889Z,76.84
2022-08-19T14:01:44.259Z,78.58
2022-08-19T14:04:48.448Z,78.60
2022-08-19T14:07:51.886Z,78.68
2022-08-19T14:10:54.648Z,78.83
2022-08-19T14:13:57.320Z,79.57
2022-08-19T14:17:00.589Z,79.36
2022-08-19T14:20:10.963Z,78.46
2022-08-19T14:23:14.762Z,76.72
2022-08-19T14:26:18.992Z,75.30
2022-08-19T14:29:21.667Z,74.97
2022-08-19T14:32:27.703Z,73.74
2022-08-19T14:35:35.660Z,72.37
2022-08-19T14:38:38.418Z,72.04
2022-08-19T14:41:43.453Z,70.06
2022-08-19T14:44:46.910Z,67.08
2022-08-19T14:47:49.660Z,65.53
2022-08-19T14:50:53.946Z,65.37
2022-08-19T14:53:57.579Z,65.54
2022-08-19T14:57:01.309Z,65.23
2022-08-19T15:00:06.176Z,65.85
2022-08-19T15:03:09.094Z,65.54
2022-08-19T15:06:13.667Z,65.71
2022-08-19T15:09:16.529Z,63.82
2022-08-19T15:12:21.966Z,60.81
2022-08-19T15:15:25.550Z,57.20
2022-08-19T15:18:28.345Z,56.11
2022-08-19T15:21:33.423Z,53.50
2022-08-19T15:24:36.437Z,52.17
2022-08-19T15:27:51.537Z,51.12
2022-08-19T15:30:54.820Z,50.96
2022-08-19T15:33:59.267Z,51.35
2022-08-19T15:37:06.065Z,53.89
2022-08-19T15:40:10.148Z,54.16
2022-08-19T15:43:12.995Z,53.26
2022-08-19T15:46:18.117Z,55.04
2022-08-19T15:49:21.112Z,56.03
2022-08-19T15:52:25.671Z,55.97
2022-08-19T15:55:34.698Z,54.48
2022-08-19T15:58:55.147Z,51.47
2022-08-19T16:02:15.594Z,50.72
2022-08-19T16:05:39.714Z,49.46
2022-08-19T16:08:49.230Z,49.16
2022-08-19T16:11:56.837Z,51.88
2022-08-19T16:15:00.137Z,51.52
2022-08-19T16:18:04.048Z,45.43
2022-08-19T16:21:08.026Z,43.95
2022-08-19T16:24:13.951Z,44.37
2022-08-19T16:27:17.042Z,48.23
2022-08-19T16:30:19.787Z,52.52
2022-08-19T16:33:23.105Z,55.44
2022-08-19T16:36:26.711Z,55.13
2022-08-19T16:39:32.614Z,56.50
2022-08-19T16:42:35.811Z,58.80
2022-08-19T16:45:38.593Z,61.46
2022-08-19T16:48:46.609Z,63.49
2022-08-19T16:51:49.594Z,62.81
2022-08-19T16:54:53.671Z,63.98
2022-08-19T16:57:56.513Z,63.68
2022-08-19T17:01:03.407Z,64.54
2022-08-19T17:04:06.909Z,65.26
2022-08-19T17:07:10.622Z,65.38
2022-08-19T17:10:14.740Z,66.94
2022-08-19T17:13:18.010Z,67.05
2022-08-19T17:16:24.465Z,68.87
2022-08-19T17:19:27.407Z,69.34
2022-08-19T17:22:30.263Z,70.37
2022-08-19T17:25:35.079Z,70.99
2022-08-19T17:28:37.728Z,71.26
2022-08-19T17:31:40.635Z,72.25
2022-08-19T17:34:44.272Z,72.50
2022-08-19T17:37:47.234Z,72.27
2022-08-19T17:40:51.776Z,72.35
2022-08-19T17:43:55.518Z,71.98
2022-08-19T17:46:58.401Z,71.61
2022-08-19T17:50:01.065Z,71.23
2022-08-19T17:53:05.824Z,70.74
2022-08-19T17:56:10.606Z,71.54
2022-08-19T17:59:14.517Z,71.64
2022-08-19T18:02:21.984Z,72.24
2022-08-19T18:05:29.434Z,72.59
2022-08-19T18:08:32.933Z,73.22
2022-08-19T18:11:36.936Z,73.74
2022-08-19T18:14:40.144Z,73.63
2022-08-19T18:17:43.021Z,73.76
2022-08-19T18:20:46.111Z,74.28
2022-08-19T18:23:48.709Z,74.85
2022-08-19T18:26:53.146Z,75.31
2022-08-19T18:29:59.435Z,75.70
2022-08-19T18:33:08.606Z,75.54
2022-08-19T18:36:12.072Z,76.37
2022-08-19T18:39:32.691Z,76.58
2022-08-19T18:42:54.104Z,77.55
2022-08-19T18:46:14.384Z,78.13
2022-08-19T18:49:18.239Z,78.59
2022-08-19T18:52:22.349Z,78.68
2022-08-19T18:55:26.868Z,78.63
2022-08-19T18:58:34.755Z,77.61
2022-08-19T19:01:39.487Z,76.94
2022-08-19T19:04:42.351Z,77.15
2022-08-19T19:07:45.184Z,76.98
2022-08-19T19:10:47.794Z,76.76
2022-08-19T19:13:55.472Z,76.40
2022-08-19T19:16:58.929Z,75.90
2022-08-19T19:20:01.541Z,76.22
2022-08-19T19:23:04.375Z,76.87
2022-08-19T19:26:09.630Z,77.36
2022-08-19T19:29:14.087Z,78.00
2022-08-19T19:32:19.827Z,78.75
2022-08-19T19:35:22.710Z,79.09
2022-08-19T19:38:25.718Z,78.58
2022-08-19T19:41:28.413Z,78.62
2022-08-19T19:44:32.738Z,78.65
2022-08-19T19:47:35.527Z,78.54
2022-08-19T19:50:38.286Z,78.21
2022-08-19T19:53:41.727Z,77.86
2022-08-19T19:56:46.044Z,77.47
2022-08-19T19:59:51.554Z,77.29
2022-08-19T20:02:56.024Z,76.71
2022-08-19T20:06:00.274Z,75.96
2022-08-19T20:09:10.445Z,75.99
2022-08-19T20:12:13.211Z,75.53
2022-08-19T20:15:17.318Z,74.75
2022-08-19T20:18:19.991Z,74.10
2022-08-19T20:21:22.704Z,73.66
2022-08-19T20:24:28.032Z,74.80
2022-08-19T20:27:37.174Z,75.60
2022-08-19T20:30:46.387Z,75.72
2022-08-19T20:33:49.953Z,76.09
2022-08-19T20:36:52.388Z,75.94
2022-08-19T20:39:55.076Z,76.10
2022-08-19T20:42:58.005Z,75.95
2022-08-19T20:46:03.552Z,76.14
2022-08-19T20:49:06.520Z,76.21
2022-08-19T20:52:09.283Z,76.38
2022-08-19T20:55:13.299Z,74.81
2022-08-19T20:58:17.037Z,69.90
2022-08-19T21:01:21.120Z,68.74
2022-08-19T21:04:25.027Z,65.93
2022-08-19T21:07:39.163Z,64.14
2022-08-19T21:10:42.698Z,61.21
2022-08-19T21:13:45.331Z,60.86
2022-08-19T21:16:50.447Z,59.70
2022-08-19T21:19:53.292Z,57.90
2022-08-19T21:22:56.005Z,57.93
2022-08-19T21:26:00.416Z,56.70
2022-08-19T21:29:03.148Z,57.89
2022-08-19T21:32:07.590Z,56.46
2022-08-19T21:35:10.437Z,55.90
2022-08-19T21:38:13.027Z,56.29
2022-08-19T21:41:15.780Z,54.44
2022-08-19T21:44:18.486Z,54.37
2022-08-19T21:47:22.550Z,53.47
2022-08-19T21:50:28.588Z,53.32
2022-08-19T21:53:34.445Z,53.32
2022-08-19T21:56:39.991Z,53.53
2022-08-19T21:59:44.060Z,54.07
2022-08-19T22:02:48.315Z,53.90
2022-08-19T22:05:50.990Z,53.99
2022-08-19T22:08:55.431Z,54.04
2022-08-19T22:11:58.322Z,54.12
2022-08-19T22:15:01.772Z,54.24
2022-08-19T22:18:06.040Z,54.39
2022-08-19T22:21:11.930Z,54.44
2022-08-19T22:24:14.661Z,54.57
2022-08-19T22:27:17.333Z,54.83
2022-08-19T22:30:22.481Z,54.59
2022-08-19T22:33:27.663Z,54.40
2022-08-19T22:36:31.612Z,54.27
2022-08-19T22:39:35.065Z,54.30
2022-08-19T22:42:38.836Z,54.51
2022-08-19T22:45:42.346Z,54.61
2022-08-19T22:48:47.118Z,55.04
2022-08-19T22:52:07.477Z,55.19
2022-08-19T22:55:10.536Z,55.08
2022-08-19T22:58:13.089Z,54.85
2022-08-19T23:01:27.583Z,55.45
2022-08-19T23:04:34.893Z,55.50
2022-08-19T23:07:38.391Z,55.73
2022-08-19T23:10:41.173Z,55.69
2022-08-19T23:13:43.882Z,56.04
2022-08-19T23:16:51.053Z,56.35
2022-08-19T23:19:55.642Z,56.28
2022-08-19T23:22:58.638Z,56.41
2022-08-19T23:26:01.182Z,56.59
2022-08-19T23:29:21.856Z,57.21
2022-08-19T23:32:25.420Z,57.60
2022-08-19T23:35:33.643Z,58.29
2022-08-19T23:38:36.443Z,58.96
2022-08-19T23:41:39.048Z,59.39
2022-08-19T23:44:51.697Z,59.45
2022-08-19T23:47:55.636Z,59.55
2022-08-19T23:51:01.221Z,60.23
2022-08-19T23:54:03.954Z,60.17
2022-08-19T23:57:13.878Z,60.69
